createdAt,value
2019-02-28T00:01:35.162Z,6.90
2019-02-28T00:04:16.038Z,6.90
2019-02-28T00:06:56.803Z,6.90
2019-02-28T00:09:39.855Z,6.80
2019-02-28T00:12:20.532Z,6.90
2019-02-28T00:15:01.201Z,6.90
2019-02-28T00:17:43.520Z,6.80
2019-02-28T00:20:24.560Z,6.80
2019-02-28T00:23:05.305Z,6.80
2019-02-28T00:25:45.940Z,6.80
2019-02-28T00:28:26.827Z,6.80
2019-02-28T00:31:07.332Z,6.80
2019-02-28T00:33:48.108Z,6.80
2019-02-28T00:36:32.002Z,6.70
2019-02-28T00:39:12.317Z,6.60
2019-02-28T00:41:53.638Z,6.60
2019-02-28T00:44:34.429Z,6.60
2019-02-28T00:47:16.499Z,6.70
2019-02-28T00:52:41.400Z,6.70
2019-02-28T00:55:21.962Z,6.70
2019-02-28T00:58:02.512Z,6.60
2019-02-28T01:03:30.555Z,6.60
2019-02-28T01:06:10.795Z,6.50
2019-02-28T01:08:53.004Z,6.50
2019-02-28T01:11:34.043Z,6.50
2019-02-28T01:14:14.799Z,6.50
2019-02-28T01:16:55.490Z,6.50
2019-02-28T01:19:36.544Z,6.40
2019-02-28T01:22:17.135Z,6.40
2019-02-28T01:24:57.886Z,6.40
2019-02-28T01:27:38.868Z,6.40
2019-02-28T01:30:19.357Z,6.40
2019-02-28T01:33:00.181Z,6.30
2019-02-28T01:35:41.518Z,6.30
2019-02-28T01:44:35.793Z,6.40
2019-02-28T01:47:15.874Z,6.20
2019-02-28T01:50:00.717Z,6.20
2019-02-28T01:52:46.128Z,6.10
2019-02-28T01:55:29.397Z,6.10
2019-02-28T01:58:16.586Z,6.00
2019-02-28T02:03:40.676Z,6.00
2019-02-28T02:09:08.127Z,5.90
2019-02-28T02:11:48.274Z,5.90
2019-02-28T02:14:28.870Z,5.90
2019-02-28T02:17:09.317Z,5.90
2019-02-28T02:19:52.152Z,5.90
2019-02-28T02:22:32.637Z,5.90
2019-02-28T02:25:13.370Z,6.00
2019-02-28T02:27:57.649Z,5.90
2019-02-28T02:33:22.777Z,5.90
2019-02-28T02:36:03.313Z,5.90
2019-02-28T02:38:47.365Z,5.80
2019-02-28T02:41:28.200Z,5.90
2019-02-28T02:44:08.763Z,6.00
2019-02-28T02:46:55.472Z,6.00
2019-02-28T02:49:35.816Z,6.00
2019-02-28T02:52:16.039Z,6.00
2019-02-28T02:54:56.901Z,6.00
2019-02-28T02:57:37.509Z,6.00
2019-02-28T03:00:21.155Z,5.90
2019-02-28T03:03:06.045Z,5.90
2019-02-28T03:05:45.458Z,5.90
2019-02-28T03:08:26.109Z,5.90
2019-02-28T03:11:06.596Z,5.80
2019-02-28T03:13:47.762Z,5.80
2019-02-28T03:16:28.236Z,5.80
2019-02-28T03:19:09.052Z,5.80
2019-02-28T03:21:52.635Z,5.80
2019-02-28T03:24:32.084Z,5.80
2019-02-28T03:30:00.469Z,5.70
2019-02-28T03:35:25.904Z,5.70
2019-02-28T03:38:11.037Z,5.70
2019-02-28T03:40:49.387Z,5.60
2019-02-28T03:43:30.333Z,5.60
2019-02-28T03:48:55.356Z,5.60
2019-02-28T03:51:36.159Z,5.50
2019-02-28T03:54:16.794Z,5.50
2019-02-28T03:56:57.348Z,5.50
2019-02-28T03:59:37.895Z,5.50
2019-02-28T04:02:22.199Z,5.50
2019-02-28T04:05:01.002Z,5.50
2019-02-28T04:07:41.803Z,5.40
2019-02-28T04:10:22.914Z,5.40
2019-02-28T04:13:04.099Z,5.50
2019-02-28T04:16:02.317Z,5.50
2019-02-28T04:18:27.952Z,5.50
2019-02-28T04:21:10.147Z,5.60
2019-02-28T04:23:50.790Z,5.60
2019-02-28T04:26:31.498Z,5.60
2019-02-28T04:29:12.200Z,5.60
2019-02-28T04:31:53.401Z,5.60
2019-02-28T04:34:34.411Z,5.60
2019-02-28T04:37:15.087Z,5.50
2019-02-28T04:39:55.905Z,5.60
2019-02-28T04:45:23.280Z,5.50
2019-02-28T04:48:04.822Z,5.50
2019-02-28T04:50:45.906Z,5.50
2019-02-28T04:53:14.352Z,5.50
2019-02-28T04:56:02.119Z,5.40
2019-02-28T05:01:56.749Z,5.40
2019-02-28T05:05:05.259Z,5.40
2019-02-28T05:07:53.004Z,5.40
2019-02-28T05:10:40.781Z,5.40
2019-02-28T05:13:28.547Z,5.40
2019-02-28T05:16:12.398Z,5.50
2019-02-28T05:18:52.451Z,5.40
2019-02-28T05:21:33.388Z,5.50
2019-02-28T05:24:14.587Z,5.50
2019-02-28T05:26:57.342Z,5.40
2019-02-28T05:29:38.975Z,5.40
2019-02-28T05:32:19.518Z,5.40
2019-02-28T05:35:00.407Z,5.40
2019-02-28T05:37:46.898Z,5.40
2019-02-28T05:40:23.658Z,5.40
2019-02-28T05:43:04.734Z,5.40
2019-02-28T05:45:48.748Z,5.30
2019-02-28T05:48:27.645Z,5.40
2019-02-28T05:51:08.522Z,5.60
2019-02-28T05:53:49.265Z,5.50
2019-02-28T05:56:33.128Z,5.60
2019-02-28T05:59:12.304Z,5.70
2019-02-28T06:01:53.147Z,5.70
2019-02-28T06:07:18.201Z,5.80
2019-02-28T06:09:58.825Z,5.80
2019-02-28T06:12:40.433Z,5.70
2019-02-28T06:18:04.001Z,5.90
2019-02-28T06:20:44.812Z,5.90
2019-02-28T06:23:25.439Z,5.90
2019-02-28T06:26:07.883Z,5.80
2019-02-28T06:28:48.326Z,5.80
2019-02-28T06:31:29.054Z,5.80
2019-02-28T06:34:09.733Z,5.90
2019-02-28T06:36:50.847Z,5.70
2019-02-28T06:39:31.654Z,5.70
2019-02-28T06:42:13.132Z,5.80
2019-02-28T06:44:54.129Z,5.80
2019-02-28T06:47:34.903Z,5.70
2019-02-28T06:50:15.723Z,5.80
2019-02-28T06:52:59.054Z,5.80
2019-02-28T06:55:43.465Z,5.70
2019-02-28T06:58:22.786Z,5.70
2019-02-28T07:01:03.334Z,5.60
2019-02-28T07:03:53.150Z,5.70
2019-02-28T07:06:26.746Z,5.80
2019-02-28T07:09:07.880Z,5.80
2019-02-28T07:11:51.302Z,5.80
2019-02-28T07:14:30.631Z,6.00
2019-02-28T07:17:11.592Z,5.90
2019-02-28T07:19:52.212Z,5.90
2019-02-28T07:22:32.781Z,6.00
2019-02-28T07:25:13.883Z,6.10
2019-02-28T07:27:54.506Z,6.30
2019-02-28T07:30:34.969Z,6.20
2019-02-28T07:33:15.718Z,6.20
2019-02-28T07:35:56.652Z,6.20
2019-02-28T07:38:37.462Z,6.30
2019-02-28T07:41:20.216Z,6.30
2019-02-28T07:44:01.094Z,6.30
2019-02-28T07:46:42.409Z,6.40
2019-02-28T07:49:25.952Z,6.50
2019-02-28T07:52:07.056Z,6.60
2019-02-28T07:54:51.366Z,6.70
2019-02-28T07:57:30.113Z,6.80
2019-02-28T08:00:17.191Z,6.90
2019-02-28T08:02:53.229Z,7.10
2019-02-28T08:05:33.945Z,7.20
2019-02-28T08:08:14.791Z,7.40
2019-02-28T08:13:39.080Z,7.60
2019-02-28T08:16:20.015Z,7.80
2019-02-28T08:19:00.855Z,8.00
2019-02-28T08:21:47.606Z,8.10
2019-02-28T08:24:27.871Z,8.30
2019-02-28T08:27:08.612Z,8.50
2019-02-28T08:29:49.031Z,8.60
2019-02-28T08:35:18.673Z,9.10
2019-02-28T08:37:59.712Z,9.10
2019-02-28T08:40:40.725Z,9.30
2019-02-28T08:43:27.193Z,9.40
2019-02-28T08:46:09.610Z,9.60
2019-02-28T08:48:49.034Z,9.80
2019-02-28T08:51:31.008Z,9.90
2019-02-28T08:54:12.309Z,10.10
2019-02-28T08:56:53.171Z,10.20
2019-02-28T08:59:34.389Z,10.20
2019-02-28T09:02:18.285Z,10.40
2019-02-28T09:04:57.762Z,10.40
2019-02-28T09:07:39.609Z,10.50
2019-02-28T09:10:20.558Z,10.60
2019-02-28T09:13:00.850Z,10.80
2019-02-28T09:15:41.424Z,10.80
2019-02-28T09:18:22.047Z,10.80
2019-02-28T09:21:02.324Z,11.00
2019-02-28T09:23:46.079Z,11.10
2019-02-28T09:26:31.022Z,11.10
2019-02-28T09:29:12.107Z,11.30
2019-02-28T09:31:56.135Z,11.40
2019-02-28T09:37:29.824Z,11.70
2019-02-28T09:40:10.893Z,11.70
2019-02-28T09:42:52.047Z,11.80
2019-02-28T09:45:33.158Z,11.70
2019-02-28T09:50:59.296Z,11.90
2019-02-28T09:53:40.058Z,12.10
2019-02-28T09:56:21.020Z,12.20
2019-02-28T10:01:46.183Z,12.50
2019-02-28T10:04:27.288Z,12.60
2019-02-28T10:07:09.403Z,12.70
2019-02-28T10:09:49.851Z,12.90
2019-02-28T10:12:30.529Z,13.00
2019-02-28T10:15:00.549Z,13.20
2019-02-28T10:17:48.532Z,13.30
2019-02-28T10:23:31.963Z,13.70
2019-02-28T10:31:54.186Z,13.90
2019-02-28T10:35:02.339Z,13.90
2019-02-28T10:37:50.351Z,14.00
2019-02-28T10:40:38.383Z,14.00
2019-02-28T10:43:26.407Z,14.10
2019-02-28T10:46:16.595Z,14.20
2019-02-28T10:49:03.732Z,14.30
2019-02-28T10:51:51.758Z,14.30
2019-02-28T10:55:00.991Z,14.50
2019-02-28T10:57:49.372Z,14.70
2019-02-28T11:03:32.413Z,15.00
2019-02-28T11:09:36.998Z,15.10
2019-02-28T11:12:25.141Z,15.20
2019-02-28T11:17:56.668Z,15.40
2019-02-28T11:20:37.441Z,15.60
2019-02-28T11:23:19.249Z,15.70
2019-02-28T11:25:59.829Z,15.90
2019-02-28T11:28:40.450Z,16.00
2019-02-28T11:31:21.495Z,16.10
2019-02-28T11:34:03.530Z,16.30
2019-02-28T11:36:45.624Z,16.40
2019-02-28T11:39:27.615Z,16.40
2019-02-28T11:42:09.149Z,16.50
2019-02-28T11:44:49.482Z,16.60
2019-02-28T11:47:31.619Z,16.70
2019-02-28T11:50:12.040Z,16.70
2019-02-28T11:52:52.594Z,16.70
2019-02-28T11:55:33.338Z,16.90
2019-02-28T11:58:17.785Z,16.90
2019-02-28T12:00:56.717Z,17.10
2019-02-28T12:03:38.637Z,17.20
2019-02-28T12:06:22.446Z,17.20
2019-02-28T12:09:04.299Z,17.30
2019-02-28T12:11:45.082Z,17.50
2019-02-28T12:14:29.316Z,17.70
2019-02-28T12:17:09.331Z,17.80
2019-02-28T12:19:51.522Z,17.90
2019-02-28T12:22:33.550Z,18.00
2019-02-28T12:25:16.374Z,18.00
2019-02-28T12:27:59.360Z,18.10
2019-02-28T12:33:25.434Z,18.30
2019-02-28T12:36:07.837Z,18.30
2019-02-28T12:38:49.894Z,18.50
2019-02-28T12:41:31.201Z,18.60
2019-02-28T12:44:15.410Z,18.70
2019-02-28T12:46:56.961Z,18.70
2019-02-28T12:49:39.662Z,18.80
2019-02-28T12:52:20.840Z,18.80
2019-02-28T12:55:04.026Z,19.00
2019-02-28T13:00:36.352Z,19.00
2019-02-28T13:06:07.966Z,19.20
2019-02-28T13:08:48.425Z,19.20
2019-02-28T13:11:29.094Z,19.30
2019-02-28T13:14:09.955Z,19.40
2019-02-28T13:16:54.600Z,19.40
2019-02-28T13:19:34.529Z,19.50
2019-02-28T13:22:15.061Z,19.60
2019-02-28T13:24:55.623Z,19.60
2019-02-28T13:27:36.179Z,19.60
2019-02-28T13:30:16.746Z,19.70
2019-02-28T13:32:57.715Z,19.90
2019-02-28T13:35:45.147Z,19.90
2019-02-28T13:41:13.834Z,19.80
2019-02-28T13:43:59.210Z,19.90
2019-02-28T13:49:21.539Z,20.00
2019-02-28T13:52:02.971Z,20.10
2019-02-28T13:54:43.514Z,20.20
2019-02-28T14:00:16.644Z,20.10
2019-02-28T14:02:56.927Z,19.90
2019-02-28T14:05:40.831Z,19.90
2019-02-28T14:08:20.479Z,19.90
2019-02-28T14:11:01.189Z,19.60
2019-02-28T14:13:41.689Z,19.70
2019-02-28T14:16:26.344Z,19.60
2019-02-28T14:19:04.887Z,19.20
2019-02-28T14:24:30.959Z,19.40
2019-02-28T14:27:12.109Z,19.50
2019-02-28T14:29:52.843Z,19.40
2019-02-28T14:32:33.486Z,19.00
2019-02-28T14:35:14.561Z,19.10
2019-02-28T14:37:55.775Z,19.20
2019-02-28T14:40:37.722Z,18.80
2019-02-28T14:43:19.672Z,19.00
2019-02-28T14:46:02.484Z,18.70
2019-02-28T14:48:44.734Z,18.90
2019-02-28T14:51:25.505Z,18.80
2019-02-28T14:54:08.744Z,18.80
2019-02-28T14:56:50.147Z,18.70
2019-02-28T14:59:31.229Z,18.40
2019-02-28T15:02:12.636Z,18.30
2019-02-28T15:04:55.111Z,18.40
2019-02-28T15:07:38.701Z,18.50
2019-02-28T15:10:18.659Z,18.40
2019-02-28T15:12:59.660Z,18.50
2019-02-28T15:15:40.816Z,18.50
2019-02-28T15:24:09.785Z,18.80
2019-02-28T15:26:50.724Z,18.50
2019-02-28T15:29:32.386Z,18.40
2019-02-28T15:32:14.203Z,18.30
2019-02-28T15:34:55.275Z,18.30
2019-02-28T15:37:37.566Z,18.10
2019-02-28T15:40:21.535Z,18.20
2019-02-28T15:45:46.173Z,18.00
2019-02-28T15:48:26.915Z,17.90
2019-02-28T15:51:08.056Z,18.00
2019-02-28T15:53:49.651Z,17.90
2019-02-28T15:56:32.788Z,17.50
2019-02-28T15:59:14.763Z,17.70
2019-02-28T16:01:56.765Z,17.70
2019-02-28T16:04:37.528Z,17.60
2019-02-28T16:07:18.300Z,17.10
2019-02-28T16:09:58.945Z,17.00
2019-02-28T16:12:39.590Z,17.00
2019-02-28T16:15:20.795Z,17.00
2019-02-28T16:18:02.937Z,16.80
2019-02-28T16:20:44.910Z,16.80
2019-02-28T16:23:27.547Z,16.60
2019-02-28T16:26:10.277Z,16.40
2019-02-28T16:28:52.817Z,16.30
2019-02-28T16:31:34.955Z,16.10
2019-02-28T16:34:08.279Z,16.00
2019-02-28T16:36:52.911Z,15.70
2019-02-28T16:40:00.036Z,15.50
2019-02-28T16:46:01.808Z,15.40
2019-02-28T16:48:49.578Z,15.40
2019-02-28T16:51:58.088Z,15.30
2019-02-28T16:54:45.879Z,15.20
2019-02-28T16:57:33.665Z,15.00
2019-02-28T17:00:21.626Z,14.80
2019-02-28T17:03:09.471Z,14.40
2019-02-28T17:05:58.475Z,14.30
2019-02-28T17:09:07.495Z,14.00
2019-02-28T17:12:15.402Z,13.70
2019-02-28T17:17:58.257Z,13.50
2019-02-28T17:20:41.510Z,13.60
2019-02-28T17:23:21.765Z,13.50
2019-02-28T17:26:04.258Z,13.30
2019-02-28T17:28:49.948Z,13.30
2019-02-28T17:31:31.930Z,13.30
2019-02-28T17:34:14.825Z,13.20
2019-02-28T17:36:55.851Z,13.10
2019-02-28T17:42:33.143Z,13.10
2019-02-28T17:45:16.336Z,13.10
2019-02-28T17:47:57.346Z,13.10
2019-02-28T17:50:39.457Z,13.10
2019-02-28T17:53:23.551Z,13.00
2019-02-28T17:56:04.884Z,13.00
2019-02-28T18:01:30.434Z,12.70
2019-02-28T18:04:10.911Z,12.70
2019-02-28T18:06:51.593Z,12.70
2019-02-28T18:09:33.724Z,12.70
2019-02-28T18:12:14.833Z,12.60
2019-02-28T18:14:56.286Z,12.60
2019-02-28T18:17:38.540Z,12.50
2019-02-28T18:20:19.449Z,12.40
2019-02-28T18:23:01.539Z,12.40
2019-02-28T18:25:42.230Z,12.50
2019-02-28T18:28:23.687Z,12.50
2019-02-28T18:31:05.740Z,12.50
2019-02-28T18:36:30.945Z,12.40
2019-02-28T18:39:12.523Z,12.40
2019-02-28T18:41:53.757Z,12.40
2019-02-28T18:44:37.409Z,12.40
2019-02-28T18:47:17.219Z,12.40
2019-02-28T18:49:58.909Z,12.30
2019-02-28T18:52:39.627Z,12.20
2019-02-28T18:55:21.311Z,12.20
2019-02-28T18:58:02.122Z,12.10
2019-02-28T19:00:42.687Z,12.00
2019-02-28T19:03:24.106Z,12.00
2019-02-28T19:06:04.555Z,12.10
2019-02-28T19:08:45.116Z,12.00
2019-02-28T19:11:25.832Z,12.00
2019-02-28T19:16:52.629Z,12.00
2019-02-28T19:19:33.511Z,12.00
2019-02-28T19:22:15.018Z,12.00
2019-02-28T19:24:55.273Z,12.00
2019-02-28T19:27:35.631Z,11.90
2019-02-28T19:30:18.119Z,11.80
2019-02-28T19:32:59.175Z,11.80
2019-02-28T19:38:23.899Z,11.80
2019-02-28T19:41:05.360Z,11.80
2019-02-28T19:43:47.945Z,11.80
2019-02-28T19:46:30.124Z,11.80
2019-02-28T19:49:10.303Z,11.80
2019-02-28T19:51:51.660Z,11.80
2019-02-28T19:54:33.243Z,11.80
2019-02-28T19:57:14.073Z,11.80
2019-02-28T19:59:54.810Z,11.80
2019-02-28T20:02:35.601Z,11.80
2019-02-28T20:05:16.395Z,11.80
2019-02-28T20:07:58.828Z,11.70
2019-02-28T20:10:39.383Z,11.70
2019-02-28T20:16:06.461Z,11.70
2019-02-28T20:18:50.404Z,11.60
2019-02-28T20:21:32.447Z,11.60
2019-02-28T20:24:15.271Z,11.50
2019-02-28T20:26:57.285Z,11.50
2019-02-28T20:29:37.661Z,11.50
2019-02-28T20:32:18.054Z,11.50
2019-02-28T20:34:59.404Z,11.50
2019-02-28T20:37:39.861Z,11.50
2019-02-28T20:40:20.998Z,11.40
2019-02-28T20:43:01.447Z,11.40
2019-02-28T20:45:43.908Z,11.40
2019-02-28T20:48:28.076Z,11.40
2019-02-28T20:51:09.218Z,11.40
2019-02-28T20:53:50.124Z,11.30
2019-02-28T20:56:32.638Z,11.30
2019-02-28T20:59:13.497Z,11.30
2019-02-28T21:01:55.586Z,11.30
2019-02-28T21:04:37.843Z,11.30
2019-02-28T21:07:18.608Z,11.20
2019-02-28T21:10:00.669Z,11.10
2019-02-28T21:12:42.592Z,11.00
2019-02-28T21:15:24.978Z,11.00
2019-02-28T21:18:05.916Z,11.00
2019-02-28T21:20:47.156Z,10.90
2019-02-28T21:23:27.415Z,10.90
2019-02-28T21:26:09.073Z,10.90
2019-02-28T21:28:49.709Z,10.90
2019-02-28T21:31:31.452Z,10.90
2019-02-28T21:34:13.893Z,10.80
2019-02-28T21:36:55.890Z,10.70
2019-02-28T21:39:36.659Z,10.70
2019-02-28T21:42:16.869Z,10.70
2019-02-28T21:44:58.839Z,10.80
2019-02-28T21:47:39.985Z,10.70
2019-02-28T21:50:22.118Z,10.70
2019-02-28T21:53:04.776Z,10.70
2019-02-28T21:55:46.854Z,10.60
2019-02-28T21:58:27.761Z,10.60
2019-02-28T22:01:08.853Z,10.50
2019-02-28T22:03:49.487Z,10.60
2019-02-28T22:06:30.484Z,10.60
2019-02-28T22:09:10.860Z,10.60
2019-02-28T22:17:36.147Z,10.40
2019-02-28T22:20:20.279Z,10.40
2019-02-28T22:28:42.098Z,10.40
2019-02-28T22:34:09.926Z,10.40
2019-02-28T22:58:28.711Z,10.20
2019-02-28T23:01:51.315Z,10.20
2019-02-28T23:04:14.794Z,10.20
2019-02-28T23:07:02.632Z,10.10
2019-02-28T23:09:50.407Z,10.10
2019-02-28T23:12:38.187Z,10.10
2019-02-28T23:18:45.238Z,10.10
2019-02-28T23:30:07.269Z,10.10
2019-02-28T23:38:23.555Z,10.10
2019-02-28T23:44:06.090Z,10.20
2019-02-28T23:49:59.822Z,10.10
2019-02-28T23:52:54.894Z,10.00
2019-02-28T23:55:43.304Z,10.10
